sensor_id;sensor_type;location;lat;lon;timestamp;P1;durP1;ratioP1;P2;durP2;ratioP2
5559;SDS011;2803;47.916;8.074;2023-05-23T00:01:59;19.60;;;12.20;;
5559;SDS011;2803;47.916;8.074;2023-05-23T00:04:26;18.87;;;13.00;;
5559;SDS011;2803;47.916;8.074;2023-05-23T00:06:53;25.27;;;11.93;;
5559;SDS011;2803;47.916;8.074;2023-05-23T00:09:19;22.30;;;13.70;;
5559;SDS011;2803;47.916;8.074;2023-05-23T00:11:48;16.33;;;10.67;;
5559;SDS011;2803;47.916;8.074;2023-05-23T00:14:15;17.93;;;11.90;;
5559;SDS011;2803;47.916;8.074;2023-05-23T00:16:43;19.30;;;11.67;;
5559;SDS011;2803;47.916;8.074;2023-05-23T00:19:13;18.20;;;10.73;;
5559;SDS011;2803;47.916;8.074;2023-05-23T00:21:41;15.43;;;10.83;;
5559;SDS011;2803;47.916;8.074;2023-05-23T00:24:09;17.20;;;11.50;;
5559;SDS011;2803;47.916;8.074;2023-05-23T00:26:36;19.20;;;11.90;;
5559;SDS011;2803;47.916;8.074;2023-05-23T00:29:04;18.17;;;11.83;;
5559;SDS011;2803;47.916;8.074;2023-05-23T00:31:31;14.60;;;11.20;;
5559;SDS011;2803;47.916;8.074;2023-05-23T00:33:57;14.53;;;11.00;;
5559;SDS011;2803;47.916;8.074;2023-05-23T00:36:24;23.97;;;12.13;;
5559;SDS011;2803;47.916;8.074;2023-05-23T00:38:51;20.77;;;11.87;;
5559;SDS011;2803;47.916;8.074;2023-05-23T00:41:18;16.43;;;12.50;;
5559;SDS011;2803;47.916;8.074;2023-05-23T00:43:45;23.90;;;12.67;;
5559;SDS011;2803;47.916;8.074;2023-05-23T00:46:13;21.93;;;12.63;;
5559;SDS011;2803;47.916;8.074;2023-05-23T00:48:40;19.10;;;12.40;;
5559;SDS011;2803;47.916;8.074;2023-05-23T00:51:06;16.90;;;11.90;;
5559;SDS011;2803;47.916;8.074;2023-05-23T00:53:33;17.60;;;12.50;;
5559;SDS011;2803;47.916;8.074;2023-05-23T00:56:00;19.43;;;12.30;;
5559;SDS011;2803;47.916;8.074;2023-05-23T00:58:28;22.13;;;12.90;;
5559;SDS011;2803;47.916;8.074;2023-05-23T01:00:56;23.30;;;14.93;;
5559;SDS011;2803;47.916;8.074;2023-05-23T01:03:25;20.50;;;14.10;;
5559;SDS011;2803;47.916;8.074;2023-05-23T01:05:53;26.10;;;13.60;;
5559;SDS011;2803;47.916;8.074;2023-05-23T01:08:20;18.50;;;11.90;;
5559;SDS011;2803;47.916;8.074;2023-05-23T01:10:46;25.37;;;12.00;;
5559;SDS011;2803;47.916;8.074;2023-05-23T01:13:16;26.00;;;12.77;;
5559;SDS011;2803;47.916;8.074;2023-05-23T01:15:49;16.50;;;12.30;;
5559;SDS011;2803;47.916;8.074;2023-05-23T01:18:22;19.10;;;13.13;;
5559;SDS011;2803;47.916;8.074;2023-05-23T01:20:55;18.50;;;12.30;;
5559;SDS011;2803;47.916;8.074;2023-05-23T01:23:28;19.70;;;13.53;;
5559;SDS011;2803;47.916;8.074;2023-05-23T01:26:12;19.53;;;13.27;;
5559;SDS011;2803;47.916;8.074;2023-05-23T01:28:55;18.37;;;12.53;;
5559;SDS011;2803;47.916;8.074;2023-05-23T01:31:29;17.97;;;12.77;;
5559;SDS011;2803;47.916;8.074;2023-05-23T01:33:59;19.90;;;13.10;;
5559;SDS011;2803;47.916;8.074;2023-05-23T01:36:27;17.80;;;12.63;;
5559;SDS011;2803;47.916;8.074;2023-05-23T01:38:56;21.83;;;12.27;;
5559;SDS011;2803;47.916;8.074;2023-05-23T01:41:22;29.13;;;14.93;;
5559;SDS011;2803;47.916;8.074;2023-05-23T01:43:50;19.00;;;12.27;;
5559;SDS011;2803;47.916;8.074;2023-05-23T01:46:18;24.87;;;13.40;;
5559;SDS011;2803;47.916;8.074;2023-05-23T01:48:45;24.10;;;14.27;;
5559;SDS011;2803;47.916;8.074;2023-05-23T01:51:13;19.67;;;12.80;;
5559;SDS011;2803;47.916;8.074;2023-05-23T01:53:40;17.10;;;11.27;;
5559;SDS011;2803;47.916;8.074;2023-05-23T01:56:07;17.63;;;11.83;;
5559;SDS011;2803;47.916;8.074;2023-05-23T01:58:34;19.97;;;13.03;;
5559;SDS011;2803;47.916;8.074;2023-05-23T02:01:01;27.77;;;13.70;;
5559;SDS011;2803;47.916;8.074;2023-05-23T02:03:29;20.20;;;14.17;;
5559;SDS011;2803;47.916;8.074;2023-05-23T02:05:57;20.30;;;13.90;;
5559;SDS011;2803;47.916;8.074;2023-05-23T02:08:23;30.73;;;13.50;;
5559;SDS011;2803;47.916;8.074;2023-05-23T02:10:50;23.50;;;13.67;;
5559;SDS011;2803;47.916;8.074;2023-05-23T02:13:17;22.10;;;14.33;;
5559;SDS011;2803;47.916;8.074;2023-05-23T02:15:43;20.03;;;12.57;;
5559;SDS011;2803;47.916;8.074;2023-05-23T02:18:10;18.80;;;12.30;;
5559;SDS011;2803;47.916;8.074;2023-05-23T02:20:38;20.00;;;13.70;;
5559;SDS011;2803;47.916;8.074;2023-05-23T02:23:05;24.10;;;13.90;;
5559;SDS011;2803;47.916;8.074;2023-05-23T02:25:31;20.20;;;12.80;;
5559;SDS011;2803;47.916;8.074;2023-05-23T02:27:58;17.97;;;13.33;;
5559;SDS011;2803;47.916;8.074;2023-05-23T02:30:25;18.93;;;12.90;;
5559;SDS011;2803;47.916;8.074;2023-05-23T02:32:51;19.00;;;12.80;;
5559;SDS011;2803;47.916;8.074;2023-05-23T02:35:18;21.10;;;12.87;;
5559;SDS011;2803;47.916;8.074;2023-05-23T02:37:46;18.00;;;13.03;;
5559;SDS011;2803;47.916;8.074;2023-05-23T02:40:13;19.37;;;13.27;;
5559;SDS011;2803;47.916;8.074;2023-05-23T02:42:39;20.07;;;12.17;;
5559;SDS011;2803;47.916;8.074;2023-05-23T02:45:06;19.43;;;12.30;;
5559;SDS011;2803;47.916;8.074;2023-05-23T02:47:34;17.07;;;12.77;;
5559;SDS011;2803;47.916;8.074;2023-05-23T02:50:00;16.93;;;12.00;;
5559;SDS011;2803;47.916;8.074;2023-05-23T02:52:27;18.77;;;12.50;;
5559;SDS011;2803;47.916;8.074;2023-05-23T02:54:55;17.53;;;12.13;;
5559;SDS011;2803;47.916;8.074;2023-05-23T02:57:22;19.10;;;11.90;;
5559;SDS011;2803;47.916;8.074;2023-05-23T02:59:49;20.93;;;12.43;;
5559;SDS011;2803;47.916;8.074;2023-05-23T03:02:16;22.03;;;12.53;;
5559;SDS011;2803;47.916;8.074;2023-05-23T03:04:43;18.23;;;10.60;;
5559;SDS011;2803;47.916;8.074;2023-05-23T03:07:10;17.37;;;11.20;;
5559;SDS011;2803;47.916;8.074;2023-05-23T03:09:37;25.40;;;12.90;;
5559;SDS011;2803;47.916;8.074;2023-05-23T03:12:06;16.10;;;11.40;;
5559;SDS011;2803;47.916;8.074;2023-05-23T03:14:33;19.43;;;11.73;;
5559;SDS011;2803;47.916;8.074;2023-05-23T03:16:59;21.00;;;12.50;;
5559;SDS011;2803;47.916;8.074;2023-05-23T03:19:28;19.10;;;11.57;;
5559;SDS011;2803;47.916;8.074;2023-05-23T03:21:54;18.60;;;11.80;;
5559;SDS011;2803;47.916;8.074;2023-05-23T03:24:21;18.80;;;12.60;;
5559;SDS011;2803;47.916;8.074;2023-05-23T03:26:47;18.40;;;11.73;;
5559;SDS011;2803;47.916;8.074;2023-05-23T03:29:15;18.60;;;10.33;;
5559;SDS011;2803;47.916;8.074;2023-05-23T03:31:42;20.90;;;11.90;;
5559;SDS011;2803;47.916;8.074;2023-05-23T03:34:09;21.03;;;11.70;;
5559;SDS011;2803;47.916;8.074;2023-05-23T03:36:37;19.53;;;11.50;;
5559;SDS011;2803;47.916;8.074;2023-05-23T03:39:04;19.77;;;12.43;;
5559;SDS011;2803;47.916;8.074;2023-05-23T03:41:31;18.13;;;12.47;;
5559;SDS011;2803;47.916;8.074;2023-05-23T03:43:57;25.63;;;12.27;;
5559;SDS011;2803;47.916;8.074;2023-05-23T03:46:26;20.00;;;12.47;;
5559;SDS011;2803;47.916;8.074;2023-05-23T03:48:52;21.47;;;12.10;;
5559;SDS011;2803;47.916;8.074;2023-05-23T03:51:19;18.37;;;11.30;;
5559;SDS011;2803;47.916;8.074;2023-05-23T03:53:46;59.80;;;28.73;;
5559;SDS011;2803;47.916;8.074;2023-05-23T03:56:12;33.00;;;18.43;;
5559;SDS011;2803;47.916;8.074;2023-05-23T03:58:39;21.00;;;12.30;;
5559;SDS011;2803;47.916;8.074;2023-05-23T04:01:06;21.63;;;12.30;;
5559;SDS011;2803;47.916;8.074;2023-05-23T04:03:34;19.73;;;12.00;;
5559;SDS011;2803;47.916;8.074;2023-05-23T04:06:01;17.70;;;12.07;;
5559;SDS011;2803;47.916;8.074;2023-05-23T04:08:28;22.50;;;11.83;;
5559;SDS011;2803;47.916;8.074;2023-05-23T04:10:57;19.50;;;10.70;;
5559;SDS011;2803;47.916;8.074;2023-05-23T04:13:25;21.60;;;12.20;;
5559;SDS011;2803;47.916;8.074;2023-05-23T04:15:52;24.80;;;12.77;;
5559;SDS011;2803;47.916;8.074;2023-05-23T04:18:20;23.50;;;12.13;;
5559;SDS011;2803;47.916;8.074;2023-05-23T04:20:48;20.97;;;10.77;;
5559;SDS011;2803;47.916;8.074;2023-05-23T04:23:15;16.80;;;11.10;;
5559;SDS011;2803;47.916;8.074;2023-05-23T04:25:41;22.00;;;13.80;;
5559;SDS011;2803;47.916;8.074;2023-05-23T04:28:09;21.80;;;14.10;;
5559;SDS011;2803;47.916;8.074;2023-05-23T04:30:36;19.63;;;12.17;;
5559;SDS011;2803;47.916;8.074;2023-05-23T04:33:03;22.10;;;12.13;;
5559;SDS011;2803;47.916;8.074;2023-05-23T04:35:30;18.00;;;11.40;;
5559;SDS011;2803;47.916;8.074;2023-05-23T04:37:59;16.67;;;11.93;;
5559;SDS011;2803;47.916;8.074;2023-05-23T04:40:28;16.93;;;11.10;;
5559;SDS011;2803;47.916;8.074;2023-05-23T04:42:54;28.50;;;12.47;;
5559;SDS011;2803;47.916;8.074;2023-05-23T04:45:21;18.93;;;12.30;;
5559;SDS011;2803;47.916;8.074;2023-05-23T04:47:48;23.90;;;11.90;;
5559;SDS011;2803;47.916;8.074;2023-05-23T04:50:15;19.80;;;13.13;;
5559;SDS011;2803;47.916;8.074;2023-05-23T04:52:42;21.03;;;12.20;;
5559;SDS011;2803;47.916;8.074;2023-05-23T04:55:10;21.37;;;11.83;;
5559;SDS011;2803;47.916;8.074;2023-05-23T04:57:37;17.63;;;12.40;;
5559;SDS011;2803;47.916;8.074;2023-05-23T05:00:04;18.63;;;12.10;;
5559;SDS011;2803;47.916;8.074;2023-05-23T05:02:34;17.10;;;12.43;;
5559;SDS011;2803;47.916;8.074;2023-05-23T05:05:01;16.80;;;11.33;;
5559;SDS011;2803;47.916;8.074;2023-05-23T05:07:28;19.90;;;12.70;;
5559;SDS011;2803;47.916;8.074;2023-05-23T05:09:55;26.33;;;12.60;;
5559;SDS011;2803;47.916;8.074;2023-05-23T05:12:23;20.00;;;12.40;;
5559;SDS011;2803;47.916;8.074;2023-05-23T05:14:51;18.20;;;12.27;;
5559;SDS011;2803;47.916;8.074;2023-05-23T05:17:18;14.40;;;11.33;;
5559;SDS011;2803;47.916;8.074;2023-05-23T05:19:45;17.50;;;12.23;;
5559;SDS011;2803;47.916;8.074;2023-05-23T05:22:11;21.20;;;13.60;;
5559;SDS011;2803;47.916;8.074;2023-05-23T05:24:39;19.83;;;13.27;;
5559;SDS011;2803;47.916;8.074;2023-05-23T05:27:07;21.97;;;11.30;;
5559;SDS011;2803;47.916;8.074;2023-05-23T05:29:36;17.57;;;11.53;;
5559;SDS011;2803;47.916;8.074;2023-05-23T05:32:03;20.00;;;11.33;;
5559;SDS011;2803;47.916;8.074;2023-05-23T05:34:32;19.03;;;10.93;;
5559;SDS011;2803;47.916;8.074;2023-05-23T05:36:59;22.03;;;12.27;;
5559;SDS011;2803;47.916;8.074;2023-05-23T05:39:26;28.00;;;13.90;;
5559;SDS011;2803;47.916;8.074;2023-05-23T05:41:53;22.63;;;13.57;;
5559;SDS011;2803;47.916;8.074;2023-05-23T05:44:20;24.73;;;11.97;;
5559;SDS011;2803;47.916;8.074;2023-05-23T05:46:48;16.17;;;10.87;;
5559;SDS011;2803;47.916;8.074;2023-05-23T05:49:15;19.33;;;11.47;;
5559;SDS011;2803;47.916;8.074;2023-05-23T05:51:42;25.73;;;14.77;;
5559;SDS011;2803;47.916;8.074;2023-05-23T05:54:08;21.83;;;14.50;;
5559;SDS011;2803;47.916;8.074;2023-05-23T05:56:35;18.20;;;13.93;;
5559;SDS011;2803;47.916;8.074;2023-05-23T05:59:02;17.30;;;12.00;;
5559;SDS011;2803;47.916;8.074;2023-05-23T06:01:28;21.17;;;12.23;;
5559;SDS011;2803;47.916;8.074;2023-05-23T06:03:57;17.90;;;12.03;;
5559;SDS011;2803;47.916;8.074;2023-05-23T06:06:23;20.20;;;13.03;;
5559;SDS011;2803;47.916;8.074;2023-05-23T06:08:50;23.17;;;13.50;;
5559;SDS011;2803;47.916;8.074;2023-05-23T06:11:17;24.63;;;12.83;;
5559;SDS011;2803;47.916;8.074;2023-05-23T06:13:44;20.07;;;13.70;;
5559;SDS011;2803;47.916;8.074;2023-05-23T06:16:11;27.23;;;14.37;;
5559;SDS011;2803;47.916;8.074;2023-05-23T06:18:39;23.53;;;12.87;;
5559;SDS011;2803;47.916;8.074;2023-05-23T06:21:07;21.97;;;12.90;;
5559;SDS011;2803;47.916;8.074;2023-05-23T06:23:34;20.90;;;13.67;;
5559;SDS011;2803;47.916;8.074;2023-05-23T06:26:00;20.67;;;12.93;;
5559;SDS011;2803;47.916;8.074;2023-05-23T06:28:27;24.40;;;14.57;;
5559;SDS011;2803;47.916;8.074;2023-05-23T06:30:54;20.47;;;14.03;;
5559;SDS011;2803;47.916;8.074;2023-05-23T06:33:20;20.90;;;14.00;;
5559;SDS011;2803;47.916;8.074;2023-05-23T06:35:47;19.53;;;12.67;;
5559;SDS011;2803;47.916;8.074;2023-05-23T06:38:15;22.70;;;12.30;;
5559;SDS011;2803;47.916;8.074;2023-05-23T06:40:42;21.93;;;13.50;;
5559;SDS011;2803;47.916;8.074;2023-05-23T06:43:08;21.67;;;13.20;;
5559;SDS011;2803;47.916;8.074;2023-05-23T06:45:35;19.80;;;14.00;;
5559;SDS011;2803;47.916;8.074;2023-05-23T06:48:02;23.83;;;15.07;;
5559;SDS011;2803;47.916;8.074;2023-05-23T06:50:29;25.57;;;14.63;;
5559;SDS011;2803;47.916;8.074;2023-05-23T06:52:55;29.57;;;16.57;;
5559;SDS011;2803;47.916;8.074;2023-05-23T06:55:23;26.10;;;17.27;;
5559;SDS011;2803;47.916;8.074;2023-05-23T06:57:51;30.57;;;16.80;;
5559;SDS011;2803;47.916;8.074;2023-05-23T07:00:18;29.07;;;17.07;;
5559;SDS011;2803;47.916;8.074;2023-05-23T07:02:45;28.73;;;16.80;;
5559;SDS011;2803;47.916;8.074;2023-05-23T07:05:12;26.80;;;18.17;;
5559;SDS011;2803;47.916;8.074;2023-05-23T07:07:39;27.43;;;18.53;;
5559;SDS011;2803;47.916;8.074;2023-05-23T07:10:06;26.90;;;17.67;;
5559;SDS011;2803;47.916;8.074;2023-05-23T07:12:35;28.23;;;18.80;;
5559;SDS011;2803;47.916;8.074;2023-05-23T07:15:01;33.27;;;21.13;;
5559;SDS011;2803;47.916;8.074;2023-05-23T07:17:28;33.10;;;20.10;;
5559;SDS011;2803;47.916;8.074;2023-05-23T07:19:55;29.30;;;20.40;;
5559;SDS011;2803;47.916;8.074;2023-05-23T07:22:22;34.80;;;19.67;;
5559;SDS011;2803;47.916;8.074;2023-05-23T07:24:48;28.43;;;18.97;;
5559;SDS011;2803;47.916;8.074;2023-05-23T07:27:15;32.60;;;20.77;;
5559;SDS011;2803;47.916;8.074;2023-05-23T07:29:43;31.27;;;19.73;;
5559;SDS011;2803;47.916;8.074;2023-05-23T07:32:09;34.73;;;20.27;;
5559;SDS011;2803;47.916;8.074;2023-05-23T07:34:36;35.33;;;19.23;;
5559;SDS011;2803;47.916;8.074;2023-05-23T07:37:03;39.20;;;22.33;;
5559;SDS011;2803;47.916;8.074;2023-05-23T07:39:29;32.80;;;20.37;;
5559;SDS011;2803;47.916;8.074;2023-05-23T07:41:56;35.80;;;21.57;;
5559;SDS011;2803;47.916;8.074;2023-05-23T07:44:23;33.43;;;21.70;;
5559;SDS011;2803;47.916;8.074;2023-05-23T07:46:50;33.23;;;20.17;;
5559;SDS011;2803;47.916;8.074;2023-05-23T07:49:17;31.37;;;20.30;;
5559;SDS011;2803;47.916;8.074;2023-05-23T07:51:44;35.77;;;20.10;;
5559;SDS011;2803;47.916;8.074;2023-05-23T07:54:10;39.30;;;21.60;;
5559;SDS011;2803;47.916;8.074;2023-05-23T07:56:37;28.33;;;19.57;;
5559;SDS011;2803;47.916;8.074;2023-05-23T07:59:04;36.03;;;20.40;;
5559;SDS011;2803;47.916;8.074;2023-05-23T08:01:32;32.13;;;20.23;;
5559;SDS011;2803;47.916;8.074;2023-05-23T08:04:00;33.80;;;20.63;;
5559;SDS011;2803;47.916;8.074;2023-05-23T08:06:27;32.20;;;20.40;;
5559;SDS011;2803;47.916;8.074;2023-05-23T08:08:57;37.13;;;20.63;;
5559;SDS011;2803;47.916;8.074;2023-05-23T08:11:24;33.90;;;21.00;;
5559;SDS011;2803;47.916;8.074;2023-05-23T08:13:51;31.80;;;19.93;;
5559;SDS011;2803;47.916;8.074;2023-05-23T08:16:18;30.43;;;20.00;;
5559;SDS011;2803;47.916;8.074;2023-05-23T08:18:45;34.77;;;21.20;;
5559;SDS011;2803;47.916;8.074;2023-05-23T08:21:13;40.63;;;22.83;;
5559;SDS011;2803;47.916;8.074;2023-05-23T08:23:40;35.37;;;22.20;;
5559;SDS011;2803;47.916;8.074;2023-05-23T08:26:06;35.17;;;21.50;;
5559;SDS011;2803;47.916;8.074;2023-05-23T08:28:33;34.13;;;21.43;;
5559;SDS011;2803;47.916;8.074;2023-05-23T08:30:59;34.70;;;19.90;;
5559;SDS011;2803;47.916;8.074;2023-05-23T08:33:26;33.97;;;19.90;;
5559;SDS011;2803;47.916;8.074;2023-05-23T08:35:52;27.60;;;18.13;;
5559;SDS011;2803;47.916;8.074;2023-05-23T08:38:20;30.60;;;19.30;;
5559;SDS011;2803;47.916;8.074;2023-05-23T08:40:48;37.20;;;20.50;;
5559;SDS011;2803;47.916;8.074;2023-05-23T08:43:16;28.93;;;19.93;;
5559;SDS011;2803;47.916;8.074;2023-05-23T08:45:43;34.13;;;20.30;;
5559;SDS011;2803;47.916;8.074;2023-05-23T08:48:10;34.90;;;20.50;;
5559;SDS011;2803;47.916;8.074;2023-05-23T08:50:39;35.50;;;22.63;;
5559;SDS011;2803;47.916;8.074;2023-05-23T08:53:08;31.80;;;20.77;;
5559;SDS011;2803;47.916;8.074;2023-05-23T08:55:37;29.00;;;19.37;;
5559;SDS011;2803;47.916;8.074;2023-05-23T08:58:05;29.93;;;18.87;;
5559;SDS011;2803;47.916;8.074;2023-05-23T09:00:31;32.17;;;20.73;;
5559;SDS011;2803;47.916;8.074;2023-05-23T09:02:58;38.33;;;22.73;;
5559;SDS011;2803;47.916;8.074;2023-05-23T09:05:26;32.50;;;20.33;;
5559;SDS011;2803;47.916;8.074;2023-05-23T09:07:53;39.53;;;22.87;;
5559;SDS011;2803;47.916;8.074;2023-05-23T09:10:20;33.20;;;20.17;;
5559;SDS011;2803;47.916;8.074;2023-05-23T09:12:49;36.30;;;20.80;;
5559;SDS011;2803;47.916;8.074;2023-05-23T09:15:15;39.80;;;24.40;;
5559;SDS011;2803;47.916;8.074;2023-05-23T09:17:43;41.03;;;25.47;;
5559;SDS011;2803;47.916;8.074;2023-05-23T09:20:10;42.57;;;26.40;;
5559;SDS011;2803;47.916;8.074;2023-05-23T09:22:44;45.73;;;27.20;;
5559;SDS011;2803;47.916;8.074;2023-05-23T09:25:13;39.60;;;25.57;;
5559;SDS011;2803;47.916;8.074;2023-05-23T09:27:40;47.80;;;28.10;;
5559;SDS011;2803;47.916;8.074;2023-05-23T09:30:09;56.30;;;29.30;;
5559;SDS011;2803;47.916;8.074;2023-05-23T09:32:37;48.17;;;27.20;;
5559;SDS011;2803;47.916;8.074;2023-05-23T09:35:04;45.47;;;26.60;;
5559;SDS011;2803;47.916;8.074;2023-05-23T09:37:33;44.13;;;26.70;;
5559;SDS011;2803;47.916;8.074;2023-05-23T09:40:04;51.03;;;28.00;;
5559;SDS011;2803;47.916;8.074;2023-05-23T09:42:35;47.10;;;27.13;;
5559;SDS011;2803;47.916;8.074;2023-05-23T09:45:09;44.80;;;27.20;;
5559;SDS011;2803;47.916;8.074;2023-05-23T09:47:36;52.23;;;28.03;;
5559;SDS011;2803;47.916;8.074;2023-05-23T09:50:02;54.77;;;30.97;;
5559;SDS011;2803;47.916;8.074;2023-05-23T09:52:33;47.07;;;27.07;;
5559;SDS011;2803;47.916;8.074;2023-05-23T09:55:02;47.47;;;27.80;;
5559;SDS011;2803;47.916;8.074;2023-05-23T09:57:28;47.50;;;27.37;;
5559;SDS011;2803;47.916;8.074;2023-05-23T09:59:59;66.60;;;28.30;;
5559;SDS011;2803;47.916;8.074;2023-05-23T10:02:40;42.07;;;25.73;;
5559;SDS011;2803;47.916;8.074;2023-05-23T10:05:21;42.03;;;25.10;;
5559;SDS011;2803;47.916;8.074;2023-05-23T10:07:57;42.30;;;25.77;;
5559;SDS011;2803;47.916;8.074;2023-05-23T10:10:25;37.87;;;23.07;;
5559;SDS011;2803;47.916;8.074;2023-05-23T10:12:56;37.47;;;24.37;;
5559;SDS011;2803;47.916;8.074;2023-05-23T10:15:24;37.00;;;23.87;;
5559;SDS011;2803;47.916;8.074;2023-05-23T10:18:02;44.67;;;26.20;;
5559;SDS011;2803;47.916;8.074;2023-05-23T10:20:34;38.50;;;23.77;;
5559;SDS011;2803;47.916;8.074;2023-05-23T10:23:03;42.20;;;24.80;;
5559;SDS011;2803;47.916;8.074;2023-05-23T10:25:30;47.13;;;25.63;;
5559;SDS011;2803;47.916;8.074;2023-05-23T10:27:58;40.63;;;24.47;;
5559;SDS011;2803;47.916;8.074;2023-05-23T10:30:26;45.57;;;27.10;;
5559;SDS011;2803;47.916;8.074;2023-05-23T10:32:53;45.50;;;25.83;;
5559;SDS011;2803;47.916;8.074;2023-05-23T10:35:23;46.87;;;29.07;;
5559;SDS011;2803;47.916;8.074;2023-05-23T10:37:58;46.33;;;27.63;;
5559;SDS011;2803;47.916;8.074;2023-05-23T10:40:30;49.63;;;30.23;;
5559;SDS011;2803;47.916;8.074;2023-05-23T10:43:06;47.03;;;29.50;;
5559;SDS011;2803;47.916;8.074;2023-05-23T10:45:41;50.93;;;29.13;;
5559;SDS011;2803;47.916;8.074;2023-05-23T10:48:16;53.17;;;28.10;;
5559;SDS011;2803;47.916;8.074;2023-05-23T10:50:49;44.53;;;27.50;;
5559;SDS011;2803;47.916;8.074;2023-05-23T10:53:27;39.27;;;26.03;;
5559;SDS011;2803;47.916;8.074;2023-05-23T10:55:55;43.27;;;25.47;;
5559;SDS011;2803;47.916;8.074;2023-05-23T10:58:21;39.63;;;25.80;;
5559;SDS011;2803;47.916;8.074;2023-05-23T11:00:50;39.50;;;24.80;;
5559;SDS011;2803;47.916;8.074;2023-05-23T11:03:18;37.67;;;25.03;;
5559;SDS011;2803;47.916;8.074;2023-05-23T11:05:59;42.87;;;26.07;;
5559;SDS011;2803;47.916;8.074;2023-05-23T11:08:26;46.83;;;28.43;;
5559;SDS011;2803;47.916;8.074;2023-05-23T11:10:54;39.40;;;27.07;;
5559;SDS011;2803;47.916;8.074;2023-05-23T11:13:24;52.90;;;27.80;;
5559;SDS011;2803;47.916;8.074;2023-05-23T11:15:51;41.57;;;26.63;;
5559;SDS011;2803;47.916;8.074;2023-05-23T11:18:19;38.97;;;26.20;;
5559;SDS011;2803;47.916;8.074;2023-05-23T11:20:48;37.23;;;24.60;;
5559;SDS011;2803;47.916;8.074;2023-05-23T11:23:18;42.17;;;23.43;;
5559;SDS011;2803;47.916;8.074;2023-05-23T11:25:46;37.23;;;24.93;;
5559;SDS011;2803;47.916;8.074;2023-05-23T11:28:15;37.27;;;24.50;;
5559;SDS011;2803;47.916;8.074;2023-05-23T11:30:42;38.80;;;25.50;;
5559;SDS011;2803;47.916;8.074;2023-05-23T11:33:12;40.20;;;26.93;;
5559;SDS011;2803;47.916;8.074;2023-05-23T11:35:40;43.43;;;26.97;;
5559;SDS011;2803;47.916;8.074;2023-05-23T11:38:07;36.37;;;23.87;;
5559;SDS011;2803;47.916;8.074;2023-05-23T11:40:36;38.80;;;24.07;;
5559;SDS011;2803;47.916;8.074;2023-05-23T11:43:04;42.23;;;23.77;;
5559;SDS011;2803;47.916;8.074;2023-05-23T11:45:32;33.27;;;22.53;;
5559;SDS011;2803;47.916;8.074;2023-05-23T11:48:03;35.00;;;21.53;;
5559;SDS011;2803;47.916;8.074;2023-05-23T11:50:31;35.57;;;22.20;;
5559;SDS011;2803;47.916;8.074;2023-05-23T11:52:58;37.93;;;22.60;;
5559;SDS011;2803;47.916;8.074;2023-05-23T11:55:25;34.67;;;22.73;;
5559;SDS011;2803;47.916;8.074;2023-05-23T11:57:54;37.90;;;26.00;;
5559;SDS011;2803;47.916;8.074;2023-05-23T12:00:21;35.70;;;23.30;;
5559;SDS011;2803;47.916;8.074;2023-05-23T12:02:48;38.07;;;24.10;;
5559;SDS011;2803;47.916;8.074;2023-05-23T12:05:15;34.90;;;24.87;;
5559;SDS011;2803;47.916;8.074;2023-05-23T12:07:42;33.73;;;23.60;;
5559;SDS011;2803;47.916;8.074;2023-05-23T12:10:09;31.47;;;22.07;;
5559;SDS011;2803;47.916;8.074;2023-05-23T12:12:36;34.30;;;23.80;;
5559;SDS011;2803;47.916;8.074;2023-05-23T12:15:04;29.73;;;21.53;;
5559;SDS011;2803;47.916;8.074;2023-05-23T12:17:31;29.20;;;21.67;;
5559;SDS011;2803;47.916;8.074;2023-05-23T12:19:58;33.83;;;21.20;;
5559;SDS011;2803;47.916;8.074;2023-05-23T12:22:25;30.77;;;19.70;;
5559;SDS011;2803;47.916;8.074;2023-05-23T12:24:53;26.17;;;19.40;;
5559;SDS011;2803;47.916;8.074;2023-05-23T12:27:25;32.17;;;19.20;;
5559;SDS011;2803;47.916;8.074;2023-05-23T12:30:03;27.50;;;19.23;;
5559;SDS011;2803;47.916;8.074;2023-05-23T12:32:33;27.10;;;19.80;;
5559;SDS011;2803;47.916;8.074;2023-05-23T12:35:00;28.53;;;19.40;;
5559;SDS011;2803;47.916;8.074;2023-05-23T12:37:26;29.90;;;20.87;;
5559;SDS011;2803;47.916;8.074;2023-05-23T12:39:54;47.03;;;19.57;;
5559;SDS011;2803;47.916;8.074;2023-05-23T12:42:21;24.67;;;18.40;;
5559;SDS011;2803;47.916;8.074;2023-05-23T12:44:50;27.97;;;19.37;;
5559;SDS011;2803;47.916;8.074;2023-05-23T12:47:18;28.00;;;18.53;;
5559;SDS011;2803;47.916;8.074;2023-05-23T12:49:45;34.23;;;18.07;;
5559;SDS011;2803;47.916;8.074;2023-05-23T12:52:12;36.27;;;18.93;;
5559;SDS011;2803;47.916;8.074;2023-05-23T12:54:38;30.07;;;18.23;;
5559;SDS011;2803;47.916;8.074;2023-05-23T12:57:05;21.50;;;15.73;;
5559;SDS011;2803;47.916;8.074;2023-05-23T12:59:31;27.00;;;17.87;;
5559;SDS011;2803;47.916;8.074;2023-05-23T13:01:58;29.87;;;17.50;;
5559;SDS011;2803;47.916;8.074;2023-05-23T13:04:27;28.23;;;18.43;;
5559;SDS011;2803;47.916;8.074;2023-05-23T13:06:54;23.73;;;16.93;;
5559;SDS011;2803;47.916;8.074;2023-05-23T13:09:21;28.80;;;18.37;;
5559;SDS011;2803;47.916;8.074;2023-05-23T13:11:47;28.53;;;18.50;;
5559;SDS011;2803;47.916;8.074;2023-05-23T13:14:14;27.20;;;17.60;;
5559;SDS011;2803;47.916;8.074;2023-05-23T13:16:41;24.37;;;17.03;;
5559;SDS011;2803;47.916;8.074;2023-05-23T13:19:08;26.00;;;17.73;;
5559;SDS011;2803;47.916;8.074;2023-05-23T13:21:36;26.27;;;16.10;;
5559;SDS011;2803;47.916;8.074;2023-05-23T13:24:03;22.17;;;14.40;;
5559;SDS011;2803;47.916;8.074;2023-05-23T13:26:31;26.93;;;17.40;;
5559;SDS011;2803;47.916;8.074;2023-05-23T13:28:57;28.77;;;16.13;;
5559;SDS011;2803;47.916;8.074;2023-05-23T13:31:24;28.07;;;17.50;;
5559;SDS011;2803;47.916;8.074;2023-05-23T13:33:51;20.20;;;14.63;;
5559;SDS011;2803;47.916;8.074;2023-05-23T13:36:17;23.37;;;17.00;;
5559;SDS011;2803;47.916;8.074;2023-05-23T13:38:45;24.00;;;16.90;;
5559;SDS011;2803;47.916;8.074;2023-05-23T13:41:12;19.90;;;15.73;;
5559;SDS011;2803;47.916;8.074;2023-05-23T13:43:39;38.13;;;17.10;;
5559;SDS011;2803;47.916;8.074;2023-05-23T13:46:05;25.20;;;15.63;;
5559;SDS011;2803;47.916;8.074;2023-05-23T13:48:32;25.10;;;15.90;;
5559;SDS011;2803;47.916;8.074;2023-05-23T13:50:59;22.17;;;16.30;;
5559;SDS011;2803;47.916;8.074;2023-05-23T13:53:26;25.20;;;16.53;;
5559;SDS011;2803;47.916;8.074;2023-05-23T13:55:55;23.03;;;16.43;;
5559;SDS011;2803;47.916;8.074;2023-05-23T13:58:22;22.50;;;16.20;;
5559;SDS011;2803;47.916;8.074;2023-05-23T14:00:49;23.47;;;14.97;;
5559;SDS011;2803;47.916;8.074;2023-05-23T14:03:15;22.43;;;13.90;;
5559;SDS011;2803;47.916;8.074;2023-05-23T14:05:43;20.20;;;14.30;;
5559;SDS011;2803;47.916;8.074;2023-05-23T14:08:10;26.50;;;16.30;;
5559;SDS011;2803;47.916;8.074;2023-05-23T14:10:37;18.77;;;14.63;;
5559;SDS011;2803;47.916;8.074;2023-05-23T14:13:06;20.70;;;15.40;;
5559;SDS011;2803;47.916;8.074;2023-05-23T14:15:33;23.47;;;15.70;;
5559;SDS011;2803;47.916;8.074;2023-05-23T14:18:02;24.57;;;13.83;;
5559;SDS011;2803;47.916;8.074;2023-05-23T14:20:28;18.57;;;13.00;;
5559;SDS011;2803;47.916;8.074;2023-05-23T14:22:55;19.40;;;14.37;;
5559;SDS011;2803;47.916;8.074;2023-05-23T14:25:22;20.20;;;13.77;;
5559;SDS011;2803;47.916;8.074;2023-05-23T14:27:49;22.13;;;15.53;;
5559;SDS011;2803;47.916;8.074;2023-05-23T14:30:16;22.07;;;14.53;;
5559;SDS011;2803;47.916;8.074;2023-05-23T14:32:44;19.87;;;13.57;;
5559;SDS011;2803;47.916;8.074;2023-05-23T14:35:11;17.40;;;13.57;;
5559;SDS011;2803;47.916;8.074;2023-05-23T14:37:37;20.23;;;12.50;;
5559;SDS011;2803;47.916;8.074;2023-05-23T14:40:04;20.80;;;13.80;;
5559;SDS011;2803;47.916;8.074;2023-05-23T14:42:32;18.77;;;14.00;;
5559;SDS011;2803;47.916;8.074;2023-05-23T14:44:59;24.53;;;12.23;;
5559;SDS011;2803;47.916;8.074;2023-05-23T14:47:27;19.50;;;12.97;;
5559;SDS011;2803;47.916;8.074;2023-05-23T14:49:53;22.03;;;13.30;;
5559;SDS011;2803;47.916;8.074;2023-05-23T14:52:20;17.60;;;12.10;;